Time;durP1;ratioP1;P1;durP2;ratioP2;P2;SDS_P1;SDS_P2;PMS_P1;PMS_P2;Temp;Humidity;BMP_temperature;BMP_pressure;BME280_temperature;BME280_humidity;BME280_pressure;Samples;Min_cycle;Max_cycle;Signal;HPM_P1;HPM_P2
2023/03/18 00:00:37;;;;;;;2.72;2.08;;;10.80;99.90;;;;;;6235662;23;20842;-83
2023/03/18 00:03:03;;;;;;;7.70;4.00;;;10.80;99.90;;;;;;6209573;23;20180;-85
2023/03/18 00:05:29;;;;;;;6.07;2.60;;;10.80;99.90;;;;;;6210868;23;20330;-80
2023/03/18 00:07:55;;;;;;;6.43;3.30;;;10.80;99.90;;;;;;6213371;23;20237;-84
2023/03/18 00:10:21;;;;;;;3.08;2.10;;;10.80;99.90;;;;;;6212896;23;20175;-83
2023/03/18 00:12:47;;;;;;;6.50;2.60;;;10.80;99.90;;;;;;6212039;23;20184;-84
2023/03/18 00:15:15;;;;;;;3.80;1.53;;;10.70;99.90;;;;;;6208685;23;20159;-83
2023/03/18 00:17:41;;;;;;;4.85;2.30;;;10.70;99.90;;;;;;6212662;23;20156;-84
2023/03/18 00:20:08;;;;;;;4.95;2.00;;;10.60;99.90;;;;;;6214073;23;20147;-84
2023/03/18 00:22:36;;;;;;;7.60;2.10;;;10.50;99.90;;;;;;6238717;23;20243;-84
2023/03/18 00:25:03;;;;;;;5.85;2.00;;;10.30;99.90;;;;;;6214022;23;20172;-86
2023/03/18 00:27:30;;;;;;;7.47;1.88;;;10.10;99.90;;;;;;6239762;23;20152;-86
2023/03/18 00:29:56;;;;;;;8.80;2.40;;;10.00;99.90;;;;;;6212638;23;20211;-82
2023/03/18 00:32:24;;;;;;;3.30;2.17;;;9.90;99.90;;;;;;6213286;23;20244;-83
2023/03/18 00:34:49;;;;;;;2.67;1.88;;;9.90;99.90;;;;;;6209725;23;20199;-85
2023/03/18 00:37:26;;;;;;;3.07;2.70;;;10.00;99.90;;;;;;6233885;23;20141;-85
2023/03/18 00:39:51;;;;;;;6.88;1.90;;;10.10;99.90;;;;;;6238453;23;20164;-83
2023/03/18 00:42:17;;;;;;;2.80;2.10;;;10.20;99.90;;;;;;6239127;23;20218;-88
2023/03/18 00:44:43;;;;;;;9.17;3.17;;;10.10;99.90;;;;;;6214736;23;20159;-85
2023/03/18 00:47:09;;;;;;;9.30;3.28;;;10.10;99.90;;;;;;6215650;23;20187;-82
2023/03/18 00:49:34;;;;;;;7.30;3.17;;;10.10;99.90;;;;;;6216572;23;20822;-84
2023/03/18 00:52:00;;;;;;;6.03;2.40;;;10.10;99.90;;;;;;6214683;23;20156;-84
2023/03/18 00:54:25;;;;;;;6.53;1.87;;;10.10;99.90;;;;;;6213051;23;20172;-84
2023/03/18 00:56:51;;;;;;;13.93;2.10;;;10.10;99.90;;;;;;6215328;23;20144;-85
2023/03/18 00:59:17;;;;;;;4.47;2.07;;;9.90;99.90;;;;;;6241885;23;20161;-84
2023/03/18 01:01:43;;;;;;;4.45;1.95;;;9.90;99.90;;;;;;6249144;23;20129;-83
2023/03/18 01:04:08;;;;;;;4.10;1.93;;;10.80;99.90;;;;;;6215562;23;20184;-84
2023/03/18 01:06:36;;;;;;;5.10;2.10;;;9.90;99.90;;;;;;6240761;23;20179;-83
2023/03/18 01:09:05;;;;;;;2.95;1.40;;;10.00;99.90;;;;;;6215665;23;20156;-85
2023/03/18 01:11:32;;;;;;;3.80;1.67;;;10.10;99.90;;;;;;6248381;23;20198;-84
2023/03/18 01:13:58;;;;;;;6.30;2.30;;;10.10;99.90;;;;;;6248023;23;20561;-84
2023/03/18 01:16:24;;;;;;;3.55;2.25;;;10.20;99.90;;;;;;6246349;23;20175;-86
2023/03/18 01:18:51;;;;;;;3.97;1.70;;;10.30;99.90;;;;;;6218949;23;20152;-86
2023/03/18 01:21:16;;;;;;;6.38;1.85;;;10.40;99.90;;;;;;6244573;23;20149;-84
2023/03/18 01:23:43;;;;;;;4.70;2.70;;;10.40;99.90;;;;;;6244952;23;20279;-84
2023/03/18 01:26:09;;;;;;;8.73;2.50;;;10.40;99.90;;;;;;6241256;23;20161;-83
2023/03/18 01:28:35;;;;;;;2.97;2.03;;;10.40;99.90;;;;;;6215994;23;20187;-85
2023/03/18 01:31:01;;;;;;;6.57;2.25;;;10.40;99.90;;;;;;6215741;23;20152;-83
2023/03/18 01:33:28;;;;;;;5.90;1.87;;;10.40;99.90;;;;;;6215382;23;20188;-84
2023/03/18 01:35:55;;;;;;;4.32;2.63;;;10.40;99.90;;;;;;6243125;23;20145;-86
2023/03/18 01:38:22;;;;;;;9.73;2.22;;;10.30;99.90;;;;;;6242189;23;20169;-84
2023/03/18 01:40:49;;;;;;;2.38;1.92;;;10.30;99.90;;;;;;6259504;23;20164;-82
2023/03/18 01:43:27;;;;;;;7.30;2.05;;;10.30;99.90;;;;;;6234882;23;20176;-83
2023/03/18 01:45:55;;;;;;;5.32;1.73;;;10.30;99.90;;;;;;6222908;23;20223;-84
2023/03/18 01:48:24;;;;;;;4.70;1.92;;;10.20;99.90;;;;;;6217194;23;20144;-84
2023/03/18 01:50:58;;;;;;;3.65;2.20;;;10.20;99.90;;;;;;6244777;23;20206;-82
2023/03/18 01:53:26;;;;;;;5.43;2.10;;;10.10;99.90;;;;;;6238158;23;20172;-85
2023/03/18 01:55:51;;;;;;;7.70;2.08;;;10.00;99.90;;;;;;6243367;23;20145;-84
2023/03/18 01:58:33;;;;;;;6.80;3.43;;;10.00;99.90;;;;;;6243005;23;20157;-85
2023/03/18 02:01:03;;;;;;;3.60;2.00;;;9.90;99.90;;;;;;6211132;23;20144;-83
2023/03/18 02:03:29;;;;;;;3.45;1.92;;;9.80;99.90;;;;;;6210823;23;20176;-85
2023/03/18 02:05:55;;;;;;;6.57;2.20;;;9.80;99.90;;;;;;6209793;23;20226;-83
2023/03/18 02:08:21;;;;;;;4.07;2.00;;;9.60;99.90;;;;;;6236960;23;20367;-84
2023/03/18 02:10:47;;;;;;;3.40;1.40;;;9.50;99.90;;;;;;6237822;23;20387;-84
2023/03/18 02:13:14;;;;;;;4.55;3.50;;;9.40;99.90;;;;;;6209034;23;20241;-82
2023/03/18 02:16:04;;;;;;;3.65;1.58;;;9.40;99.90;;;;;;6210110;23;20224;-82
2023/03/18 02:18:35;;;;;;;3.45;1.58;;;9.40;99.90;;;;;;6239418;23;20147;-83
2023/03/18 02:21:19;;;;;;;3.85;1.40;;;9.40;99.90;;;;;;6238885;23;20155;-83
2023/03/18 02:24:14;;;;;;;5.43;3.03;;;9.50;99.90;;;;;;6209099;23;20188;-82
2023/03/18 02:26:57;;;;;;;3.10;1.50;;;9.50;99.90;;;;;;6210022;23;20148;-86
2023/03/18 02:29:27;;;;;;;7.07;3.08;;;9.60;99.90;;;;;;6210417;23;20659;-84
2023/03/18 02:31:54;;;;;;;4.20;2.92;;;9.70;99.90;;;;;;6211052;23;20163;-84
2023/03/18 02:34:23;;;;;;;6.75;3.10;;;9.60;99.90;;;;;;6212624;23;20220;-82
2023/03/18 02:36:49;;;;;;;4.70;3.15;;;9.70;99.90;;;;;;6214839;23;20156;-83
2023/03/18 02:39:15;;;;;;;3.05;2.08;;;9.60;99.90;;;;;;6226119;23;20250;-84
2023/03/18 02:41:42;;;;;;;8.03;2.40;;;9.60;99.90;;;;;;6238374;23;20153;-83
2023/03/18 02:44:12;;;;;;;4.38;2.70;;;9.50;99.90;;;;;;6238003;23;20912;-83
2023/03/18 02:46:52;;;;;;;4.78;2.80;;;9.50;99.90;;;;;;6237559;23;20171;-83
2023/03/18 02:49:19;;;;;;;7.03;4.13;;;9.50;99.90;;;;;;6241581;23;20140;-84
2023/03/18 02:51:45;;;;;;;8.23;3.88;;;9.40;99.90;;;;;;6237548;23;20160;-86
2023/03/18 02:54:17;;;;;;;6.13;4.43;;;9.30;99.90;;;;;;6238976;23;20238;-85
2023/03/18 02:56:43;;;;;;;8.63;4.80;;;9.20;99.90;;;;;;6239826;23;20372;-83
2023/03/18 02:59:10;;;;;;;9.38;3.58;;;9.10;99.90;;;;;;6242195;23;20587;-83
2023/03/18 03:01:36;;;;;;;4.85;3.22;;;9.10;99.90;;;;;;6243284;22;20154;-84
2023/03/18 03:04:02;;;;;;;8.77;4.32;;;8.90;99.90;;;;;;6242251;23;20222;-83
2023/03/18 03:06:28;;;;;;;10.40;3.90;;;8.70;99.90;;;;;;6242680;23;20153;-83
2023/03/18 03:08:56;;;;;;;8.98;3.45;;;8.50;99.90;;;;;;6241081;23;20399;-83
2023/03/18 03:11:22;;;;;;;5.50;3.88;;;8.40;99.90;;;;;;6241767;23;20161;-85
2023/03/18 03:13:48;;;;;;;5.25;3.50;;;8.30;99.90;;;;;;6241980;23;20513;-85
2023/03/18 03:16:14;;;;;;;7.93;3.07;;;8.20;99.90;;;;;;6242319;23;20148;-84
2023/03/18 03:18:41;;;;;;;8.05;2.50;;;8.20;99.90;;;;;;6239703;23;20376;-87
2023/03/18 03:21:07;;;;;;;3.45;2.22;;;8.20;99.90;;;;;;6248847;23;20161;-81
2023/03/18 03:23:34;;;;;;;5.47;2.00;;;8.20;99.90;;;;;;6242890;23;20172;-85
2023/03/18 03:26:00;;;;;;;4.63;2.08;;;8.20;99.90;;;;;;6241070;23;20202;-84
2023/03/18 03:28:26;;;;;;;2.90;1.60;;;8.30;99.90;;;;;;6241837;23;20595;-85
2023/03/18 03:30:52;;;;;;;3.00;1.65;;;8.30;99.90;;;;;;6243817;23;20433;-86
2023/03/18 03:33:18;;;;;;;6.32;1.92;;;8.20;99.90;;;;;;6241205;23;20254;-83
2023/03/18 03:35:43;;;;;;;2.10;1.90;;;8.10;99.90;;;;;;6239736;23;20587;-85
2023/03/18 03:38:09;;;;;;;6.00;1.73;;;7.90;99.90;;;;;;6233981;23;20466;-84
2023/03/18 03:40:36;;;;;;;2.27;1.63;;;7.80;99.90;;;;;;6241054;23;20207;-83
2023/03/18 03:43:02;;;;;;;9.20;1.67;;;7.80;99.90;;;;;;6237644;23;20263;-81
2023/03/18 03:45:28;;;;;;;8.25;2.05;;;7.70;99.90;;;;;;6239389;23;20156;-85
2023/03/18 03:47:54;;;;;;;2.17;1.40;;;7.80;99.90;;;;;;6239102;23;20247;-85
2023/03/18 03:50:20;;;;;;;4.93;1.53;;;7.80;99.90;;;;;;6241335;23;20645;-83
2023/03/18 03:52:47;;;;;;;2.10;1.00;;;7.80;99.90;;;;;;6240196;23;20226;-82
2023/03/18 03:55:17;;;;;;;1.85;1.13;;;7.90;99.90;;;;;;6242108;23;20133;-83
2023/03/18 03:57:43;;;;;;;2.75;1.67;;;7.90;99.90;;;;;;6259559;23;20164;-82
2023/03/18 04:00:12;;;;;;;2.95;1.63;;;8.00;99.90;;;;;;6254773;23;20174;-84
2023/03/18 04:02:38;;;;;;;5.60;1.50;;;8.00;99.90;;;;;;6239434;23;20888;-85
2023/03/18 04:05:05;;;;;;;2.10;1.45;;;8.00;99.90;;;;;;6246036;23;20164;-84
2023/03/18 04:07:30;;;;;;;2.35;1.70;;;8.00;99.90;;;;;;6238854;23;20263;-83
2023/03/18 04:09:56;;;;;;;5.53;1.63;;;8.00;99.90;;;;;;6239146;23;20611;-84
2023/03/18 04:12:22;;;;;;;2.50;2.00;;;7.80;99.90;;;;;;6237998;23;20188;-84
2023/03/18 04:14:48;;;;;;;5.70;1.47;;;7.80;99.90;;;;;;6237018;23;20145;-85
2023/03/18 04:17:14;;;;;;;4.95;1.70;;;7.90;99.90;;;;;;6237406;23;20154;-82
2023/03/18 04:19:39;;;;;;;5.63;2.13;;;7.80;99.90;;;;;;6242637;23;20164;-83
2023/03/18 04:22:05;;;;;;;6.60;3.37;;;7.80;99.90;;;;;;6239129;23;20181;-83
2023/03/18 04:24:31;;;;;;;4.57;4.17;;;7.90;99.90;;;;;;6237310;23;20646;-83
2023/03/18 04:26:57;;;;;;;6.10;3.67;;;7.90;99.90;;;;;;6236985;23;20383;-84
2023/03/18 04:29:22;;;;;;;8.77;5.27;;;7.90;99.90;;;;;;6240690;23;20196;-85
2023/03/18 04:31:48;;;;;;;9.30;4.47;;;7.80;99.90;;;;;;6241326;23;20145;-82
2023/03/18 04:34:13;;;;;;;4.87;2.50;;;7.70;99.90;;;;;;6257540;23;20220;-83
2023/03/18 04:36:39;;;;;;;3.50;2.27;;;7.60;99.90;;;;;;6245408;23;20152;-83
2023/03/18 04:39:05;;;;;;;4.47;1.53;;;7.50;99.90;;;;;;6240330;23;20169;-86
2023/03/18 04:41:30;;;;;;;2.53;1.80;;;7.40;99.90;;;;;;6239972;23;20591;-83
2023/03/18 04:43:56;;;;;;;4.00;2.43;;;7.40;99.90;;;;;;6240209;23;20503;-85
2023/03/18 04:46:22;;;;;;;3.70;1.57;;;7.30;99.90;;;;;;6239869;23;20156;-81
2023/03/18 04:48:47;;;;;;;3.33;1.80;;;7.20;99.90;;;;;;6240953;23;20883;-85
2023/03/18 04:51:14;;;;;;;3.13;1.87;;;7.20;99.90;;;;;;6239914;23;20151;-85
2023/03/18 04:53:40;;;;;;;2.35;1.65;;;7.20;99.90;;;;;;6235219;23;20760;-83
2023/03/18 04:56:07;;;;;;;5.10;1.58;;;7.10;99.90;;;;;;6241939;23;20236;-84
2023/03/18 04:58:33;;;;;;;5.90;1.48;;;7.10;99.90;;;;;;6238585;23;20145;-84
2023/03/18 05:00:58;;;;;;;6.00;1.63;;;7.10;99.90;;;;;;6238483;23;20163;-83
2023/03/18 05:03:24;;;;;;;4.63;2.20;;;7.00;99.90;;;;;;6240707;23;20912;-86
2023/03/18 05:05:49;;;;;;;3.03;1.90;;;6.90;99.90;;;;;;6242253;23;20157;-86
2023/03/18 05:08:15;;;;;;;3.80;1.40;;;6.80;99.90;;;;;;6241712;23;20252;-82
2023/03/18 05:10:41;;;;;;;2.53;2.13;;;6.90;99.90;;;;;;6239488;23;20153;-83
2023/03/18 05:13:06;;;;;;;5.93;1.93;;;6.90;99.90;;;;;;6241329;23;20917;-84
2023/03/18 05:15:32;;;;;;;3.67;2.00;;;6.90;99.90;;;;;;6241524;23;20155;-84
2023/03/18 05:17:59;;;;;;;5.03;1.80;;;6.90;99.90;;;;;;6240422;23;20244;-83
2023/03/18 05:20:24;;;;;;;3.85;2.08;;;6.90;99.90;;;;;;6244988;23;20141;-85
2023/03/18 05:22:51;;;;;;;5.47;2.03;;;6.80;99.90;;;;;;6239701;23;20219;-83
2023/03/18 05:25:17;;;;;;;3.33;2.35;;;6.80;99.90;;;;;;6238462;23;20145;-84
2023/03/18 05:27:43;;;;;;;5.20;1.95;;;6.80;99.90;;;;;;6241585;23;20160;-84
2023/03/18 05:30:09;;;;;;;3.33;2.00;;;6.80;99.90;;;;;;6239964;23;20156;-84
2023/03/18 05:32:35;;;;;;;5.63;1.83;;;6.90;99.90;;;;;;6239814;23;20230;-82
2023/03/18 05:35:02;;;;;;;4.63;1.40;;;7.00;99.90;;;;;;6241233;23;20148;-84
2023/03/18 05:37:28;;;;;;;2.55;1.45;;;6.80;99.90;;;;;;6239249;23;20156;-83
2023/03/18 05:39:54;;;;;;;4.80;1.60;;;6.60;99.90;;;;;;6231998;23;20168;-84
2023/03/18 05:42:20;;;;;;;4.73;1.30;;;6.60;99.90;;;;;;6240901;23;20222;-85
2023/03/18 05:44:45;;;;;;;3.50;1.70;;;6.60;99.90;;;;;;6213111;23;20387;-84
2023/03/18 05:47:11;;;;;;;4.20;2.03;;;6.70;99.90;;;;;;6212908;23;20371;-83
2023/03/18 05:49:37;;;;;;;3.10;1.77;;;6.70;99.90;;;;;;6223441;23;20215;-85
2023/03/18 05:52:03;;;;;;;4.37;1.50;;;6.80;99.90;;;;;;6216202;23;20494;-83
2023/03/18 05:54:28;;;;;;;2.73;1.40;;;6.90;99.90;;;;;;6213336;23;20160;-83
2023/03/18 05:56:54;;;;;;;1.63;1.30;;;6.80;99.90;;;;;;6242621;23;20368;-81
2023/03/18 05:59:22;;;;;;;2.60;1.70;;;6.90;99.90;;;;;;6242522;23;20196;-84
2023/03/18 06:01:48;;;;;;;3.15;1.52;;;7.00;99.90;;;;;;6210483;23;20209;-86
2023/03/18 06:04:16;;;;;;;7.07;2.30;;;7.00;99.90;;;;;;6241208;23;20242;-84
2023/03/18 06:06:42;;;;;;;8.25;2.30;;;7.00;99.90;;;;;;6241147;23;20431;-84
2023/03/18 06:09:09;;;;;;;1.70;1.60;;;7.20;99.90;;;;;;6242115;23;20152;-86
2023/03/18 06:11:35;;;;;;;5.95;2.35;;;7.40;99.90;;;;;;6222756;23;20240;-83
2023/03/18 06:14:03;;;;;;;3.13;1.60;;;7.50;99.90;;;;;;6229548;23;20184;-81
2023/03/18 06:16:29;;;;;;;3.45;1.90;;;7.60;99.90;;;;;;6222303;23;20156;-83
2023/03/18 06:18:55;;;;;;;2.58;1.58;;;7.80;99.90;;;;;;6243315;23;20187;-83
2023/03/18 06:21:20;;;;;;;2.90;1.60;;;8.00;99.90;;;;;;6240458;23;20145;-85
2023/03/18 06:23:46;;;;;;;6.00;1.90;;;8.30;99.90;;;;;;6241387;23;20203;-82
2023/03/18 06:26:12;;;;;;;3.58;1.58;;;8.80;99.90;;;;;;6210501;23;20166;-85
2023/03/18 06:28:38;;;;;;;2.20;1.33;;;9.70;99.90;;;;;;6238259;23;20616;-85
2023/03/18 06:31:03;;;;;;;5.00;2.67;;;10.80;99.90;;;;;;6241309;23;20155;-84
2023/03/18 06:33:29;;;;;;;5.10;3.47;;;11.50;99.90;;;;;;6255094;22;20219;-84
2023/03/18 06:35:55;;;;;;;7.40;5.10;;;12.20;99.90;;;;;;6212824;23;20235;-86
2023/03/18 06:38:21;;;;;;;9.60;6.63;;;12.80;99.90;;;;;;6244863;23;20518;-83
2023/03/18 06:40:46;;;;;;;8.90;6.10;;;13.50;99.90;;;;;;6219012;23;20426;-84
2023/03/18 06:43:12;;;;;;;7.50;5.30;;;14.70;99.90;;;;;;6209496;23;20403;-81
2023/03/18 06:45:39;;;;;;;6.90;4.50;;;16.10;99.90;;;;;;6212633;23;20218;-81
2023/03/18 06:48:05;;;;;;;8.50;5.23;;;18.20;99.90;;;;;;6213670;23;20386;-84
2023/03/18 06:50:31;;;;;;;5.10;3.97;;;20.20;99.90;;;;;;6239031;23;20956;-84
2023/03/18 06:52:58;;;;;;;8.13;4.30;;;21.80;99.00;;;;;;6242189;23;20446;-86
2023/03/18 06:55:24;;;;;;;10.73;6.07;;;22.70;92.60;;;;;;6213539;23;20399;-84
2023/03/18 06:57:50;;;;;;;11.43;6.27;;;23.60;90.20;;;;;;6240031;23;20364;-83
2023/03/18 07:00:16;;;;;;;8.80;4.33;;;24.80;85.20;;;;;;6213407;23;20384;-85
2023/03/18 07:02:42;;;;;;;7.73;5.43;;;26.10;77.80;;;;;;6207614;23;20176;-84
2023/03/18 07:05:08;;;;;;;16.40;10.63;;;26.30;69.20;;;;;;6242423;23;20459;-86
2023/03/18 07:07:36;;;;;;;8.30;5.10;;;25.00;64.60;;;;;;6212578;23;20145;-83
2023/03/18 07:10:07;;;;;;;9.30;6.33;;;23.50;64.20;;;;;;6207231;23;20746;-85
2023/03/18 07:12:32;;;;;;;8.43;7.17;;;21.20;68.60;;;;;;6203271;23;20427;-83
2023/03/18 07:14:58;;;;;;;15.57;7.00;;;20.00;72.70;;;;;;6233874;23;20905;-83
2023/03/18 07:17:23;;;;;;;9.70;6.80;;;18.80;77.20;;;;;;6209190;23;20153;-84
2023/03/18 07:19:49;;;;;;;12.90;6.63;;;19.20;84.20;;;;;;6208629;23;20152;-83
2023/03/18 07:22:18;;;;;;;13.17;6.13;;;20.10;84.20;;;;;;6237727;23;20164;-84
2023/03/18 07:24:44;;;;;;;7.90;6.00;;;21.40;82.40;;;;;;6213955;23;20141;-82
2023/03/18 07:27:12;;;;;;;12.50;6.47;;;22.50;78.20;;;;;;6242809;23;20440;-81
2023/03/18 07:29:37;;;;;;;12.03;8.13;;;23.60;74.80;;;;;;6210241;23;20382;-83
2023/03/18 07:32:03;;;;;;;6.87;5.63;;;24.00;73.80;;;;;;6238543;23;20458;-84
2023/03/18 07:34:29;;;;;;;7.93;6.10;;;25.10;69.50;;;;;;6212746;23;20567;-82
2023/03/18 07:36:55;;;;;;;8.43;7.20;;;26.20;68.60;;;;;;6233248;23;20456;-81
2023/03/18 07:39:21;;;;;;;12.93;7.70;;;26.10;64.60;;;;;;6230831;23;20395;-83
2023/03/18 07:41:48;;;;;;;9.90;7.53;;;26.50;62.50;;;;;;6237461;23;20257;-82
2023/03/18 07:44:14;;;;;;;9.23;7.30;;;26.00;62.10;;;;;;6236805;23;20924;-85
2023/03/18 07:46:40;;;;;;;10.20;7.10;;;26.00;62.00;;;;;;6238712;23;20382;-85
2023/03/18 07:49:05;;;;;;;12.40;7.73;;;26.70;59.90;;;;;;6237465;23;20378;-84
2023/03/18 07:51:31;;;;;;;9.20;6.53;;;27.10;59.40;;;;;;6234651;23;20954;-83
2023/03/18 07:53:57;;;;;;;10.10;7.00;;;26.90;58.80;;;;;;6236681;23;20221;-81
2023/03/18 07:56:23;;;;;;;7.70;6.30;;;26.20;59.00;;;;;;6238176;23;20156;-83
2023/03/18 07:58:49;;;;;;;8.77;6.90;;;;;;;;;;6239111;23;20381;-80
2023/03/18 08:01:17;;;;;;;10.47;6.50;;;26.70;58.30;;;;;;6243124;23;20153;-85
2023/03/18 08:03:43;;;;;;;10.90;7.60;;;28.00;57.10;;;;;;6241761;23;20405;-81
2023/03/18 08:06:10;;;;;;;9.10;7.33;;;28.20;57.10;;;;;;6234044;23;20371;-82
2023/03/18 08:08:36;;;;;;;11.47;7.67;;;27.60;55.80;;;;;;6239377;23;20385;-82
2023/03/18 08:11:01;;;;;;;10.80;7.83;;;27.90;57.00;;;;;;6240802;23;20398;-82
2023/03/18 08:13:27;;;;;;;13.23;8.43;;;27.90;56.70;;;;;;6239572;23;20454;-82
2023/03/18 08:15:54;;;;;;;10.17;7.67;;;28.30;55.60;;;;;;6239117;23;20160;-83
2023/03/18 08:18:21;;;;;;;9.30;7.47;;;27.80;54.60;;;;;;6242367;23;20435;-83
2023/03/18 08:20:47;;;;;;;10.07;8.40;;;27.60;56.30;;;;;;6239861;23;20392;-80
2023/03/18 08:23:13;;;;;;;14.20;9.07;;;28.50;55.70;;;;;;6245648;22;20395;-81
2023/03/18 08:25:39;;;;;;;10.43;8.03;;;28.20;55.30;;;;;;6248156;23;20761;-81
2023/03/18 08:28:06;;;;;;;11.50;7.90;;;28.50;55.60;;;;;;6255275;23;20372;-79
2023/03/18 08:30:33;;;;;;;10.43;8.37;;;28.90;54.80;;;;;;6244333;23;20875;-81
2023/03/18 08:32:59;;;;;;;10.33;7.63;;;28.30;53.60;;;;;;6237153;23;20439;-83
2023/03/18 08:35:25;;;;;;;10.13;8.10;;;27.90;54.80;;;;;;6237651;23;20389;-82
2023/03/18 08:37:50;;;;;;;15.27;8.03;;;28.30;54.70;;;;;;6235858;23;20157;-81
2023/03/18 08:40:17;;;;;;;11.03;8.10;;;28.20;54.50;;;;;;6213100;23;20377;-83
2023/03/18 08:42:44;;;;;;;10.60;7.93;;;28.80;54.10;;;;;;6238383;23;20180;-81
2023/03/18 08:45:11;;;;;;;8.90;8.00;;;28.20;54.50;;;;;;6212356;23;20389;-84
2023/03/18 08:47:36;;;;;;;8.80;6.97;;;28.90;52.90;;;;;;6237209;23;20427;-83
2023/03/18 08:50:03;;;;;;;11.93;8.50;;;29.00;53.20;;;;;;6238976;23;20443;-83
2023/03/18 08:52:28;;;;;;;7.77;7.17;;;28.60;52.70;;;;;;6206930;23;20188;-83
2023/03/18 08:54:54;;;;;;;10.83;7.90;;;28.70;54.30;;;;;;6235338;23;20363;-81
2023/03/18 08:57:19;;;;;;;10.60;8.00;;;29.30;54.00;;;;;;6205322;23;20150;-81
2023/03/18 08:59:45;;;;;;;11.10;8.23;;;28.20;54.80;;;;;;6207950;23;20156;-82
2023/03/18 09:02:17;;;;;;;10.50;8.00;;;28.30;54.70;;;;;;6208798;23;20621;-84
2023/03/18 09:04:43;;;;;;;9.83;7.60;;;27.70;56.60;;;;;;6235915;23;20132;-81
2023/03/18 09:07:09;;;;;;;11.87;7.40;;;28.70;54.50;;;;;;6235166;23;20385;-82
2023/03/18 09:09:35;;;;;;;8.27;7.50;;;28.70;53.20;;;;;;6205556;23;20386;-83
2023/03/18 09:12:01;;;;;;;10.27;7.57;;;28.60;53.60;;;;;;6228656;23;20370;-81
2023/03/18 09:14:27;;;;;;;8.33;6.93;;;29.10;53.80;;;;;;6209295;23;20185;-84
2023/03/18 09:16:53;;;;;;;7.40;6.80;;;28.30;53.00;;;;;;6210449;23;20390;-83
2023/03/18 09:19:19;;;;;;;8.17;7.47;;;28.30;54.30;;;;;;6235271;23;20206;-81
2023/03/18 09:21:45;;;;;;;6.20;5.30;;;26.90;53.90;;;;;;6207700;23;20400;-81
2023/03/18 09:24:14;;;;;;;5.87;5.27;;;27.10;51.90;;;;;;6234498;23;20232;-79
2023/03/18 09:26:40;;;;;;;7.23;4.40;;;28.00;48.60;;;;;;6234299;23;20225;-83
2023/03/18 09:29:05;;;;;;;4.50;3.90;;;28.70;46.00;;;;;;6210529;23;20423;-82
2023/03/18 09:31:31;;;;;;;5.47;5.07;;;29.40;45.20;;;;;;6219809;23;20149;-84
2023/03/18 09:33:57;;;;;;;5.40;5.00;;;;;;;;;;6244719;23;20183;-85
2023/03/18 09:36:23;;;;;;;6.80;4.87;;;;;;;;;;6242084;23;20826;-87
2023/03/18 09:38:49;;;;;;;6.50;4.87;;;30.70;40.10;;;;;;6226214;23;20457;-86
2023/03/18 09:41:23;;;;;;;5.30;4.80;;;31.10;39.60;;;;;;6237227;23;20838;-85
2023/03/18 09:44:21;;;;;;;4.40;4.00;;;29.80;39.00;;;;;;6237008;23;20688;-84
2023/03/18 09:46:56;;;;;;;4.40;4.10;;;28.70;38.60;;;;;;6239518;23;20586;-82
2023/03/18 09:49:58;;;;;;;5.13;4.63;;;29.30;40.40;;;;;;6240977;23;20894;-85
2023/03/18 09:52:28;;;;;;;5.43;4.93;;;30.40;39.00;;;;;;6234706;23;20479;-85
2023/03/18 09:55:17;;;;;;;8.97;4.97;;;30.10;38.90;;;;;;6234658;23;20371;-84
2023/03/18 09:57:45;;;;;;;5.43;4.93;;;30.10;39.10;;;;;;6235637;23;20899;-84
2023/03/18 10:00:12;;;;;;;7.03;4.90;;;30.90;37.90;;;;;;6235791;23;20755;-83
2023/03/18 10:02:46;;;;;;;5.37;4.97;;;31.40;37.60;;;;;;6235896;23;20412;-84
2023/03/18 10:05:26;;;;;;;5.67;5.13;;;31.90;38.50;;;;;;6239708;23;20389;-83
2023/03/18 10:07:58;;;;;;;6.67;5.20;;;31.40;36.30;;;;;;6239187;23;20448;-84
2023/03/18 10:10:29;;;;;;;5.67;4.97;;;30.40;36.80;;;;;;6238869;23;20377;-85
2023/03/18 10:13:22;;;;;;;9.43;4.73;;;29.20;38.10;;;;;;6236877;23;20881;-85
2023/03/18 10:15:52;;;;;;;4.30;3.40;;;27.80;39.10;;;;;;6241172;23;20863;-83
2023/03/18 10:18:32;;;;;;;7.60;3.80;;;25.70;40.60;;;;;;6240377;23;20461;-83
2023/03/18 10:21:23;;;;;;;5.80;4.20;;;24.00;43.10;;;;;;6237656;23;20497;-82
2023/03/18 10:24:24;;;;;;;5.90;2.37;;;23.10;45.60;;;;;;6238656;23;20997;-83
2023/03/18 10:27:07;;;;;;;3.70;2.80;;;22.00;46.40;;;;;;6234606;23;20368;-83
2023/03/18 10:29:40;;;;;;;9.50;2.83;;;21.30;49.00;;;;;;6241505;23;20356;-87
2023/03/18 10:32:25;;;;;;;11.43;2.90;;;21.00;49.30;;;;;;6240344;23;20383;-85
2023/03/18 10:35:02;;;;;;;5.80;3.00;;;20.70;52.10;;;;;;6242942;23;20406;-84
2023/03/18 10:37:55;;;;;;;8.43;3.30;;;20.80;52.30;;;;;;6257889;23;20823;-83
2023/03/18 10:40:22;;;;;;;5.43;2.27;;;20.50;53.30;;;;;;6246575;23;20363;-83
2023/03/18 10:42:49;;;;;;;4.50;2.43;;;20.30;52.70;;;;;;6245292;23;20394;-84
2023/03/18 10:45:21;;;;;;;3.43;1.90;;;20.00;54.60;;;;;;6241317;23;20371;-85
2023/03/18 10:48:09;;;;;;;5.20;2.33;;;19.90;54.40;;;;;;6238933;23;20859;-84
2023/03/18 10:50:45;;;;;;;4.03;2.67;;;19.70;55.20;;;;;;6240604;23;20386;-83
2023/03/18 10:53:18;;;;;;;4.03;1.93;;;19.70;56.10;;;;;;6241024;23;20752;-83
2023/03/18 10:56:03;;;;;;;6.97;2.40;;;19.60;54.30;;;;;;6238723;23;20376;-83
2023/03/18 10:58:29;;;;;;;5.30;2.43;;;19.60;53.80;;;;;;6239556;23;20532;-83
2023/03/18 11:00:55;;;;;;;4.37;2.00;;;19.60;55.00;;;;;;6240025;23;20748;-84
2023/03/18 11:03:31;;;;;;;7.53;2.10;;;19.30;54.20;;;;;;6242663;23;20691;-83
2023/03/18 11:06:00;;;;;;;3.17;2.40;;;19.20;55.30;;;;;;6230139;23;20386;-84
2023/03/18 11:08:39;;;;;;;3.10;1.90;;;19.20;56.50;;;;;;6229489;23;20372;-85
2023/03/18 11:11:31;;;;;;;3.53;2.17;;;19.40;56.40;;;;;;6234045;23;20379;-83
2023/03/18 11:14:00;;;;;;;7.80;2.77;;;19.20;55.30;;;;;;6235025;23;20415;-82
2023/03/18 11:16:29;;;;;;;3.67;2.03;;;19.20;55.20;;;;;;6235680;23;20386;-85
2023/03/18 11:18:55;;;;;;;3.73;1.93;;;19.00;55.50;;;;;;6233022;23;20356;-83
2023/03/18 11:21:22;;;;;;;5.00;2.73;;;19.00;57.10;;;;;;6232712;23;20363;-82
2023/03/18 11:24:09;;;;;;;3.30;1.50;;;18.90;55.10;;;;;;6236071;23;20206;-85
2023/03/18 11:26:53;;;;;;;4.50;1.77;;;19.10;55.20;;;;;;6237273;23;20704;-84
2023/03/18 11:29:24;;;;;;;2.80;1.50;;;19.20;55.50;;;;;;6235499;23;20977;-85
2023/03/18 11:31:57;;;;;;;2.27;1.50;;;19.40;55.30;;;;;;6234201;23;20453;-84
2023/03/18 11:34:29;;;;;;;5.20;1.67;;;19.40;54.80;;;;;;6230481;23;20411;-83
2023/03/18 11:37:03;;;;;;;3.27;1.77;;;19.40;54.70;;;;;;6231216;23;20386;-82
2023/03/18 11:39:32;;;;;;;2.80;1.83;;;19.30;53.80;;;;;;6233114;22;20394;-84
2023/03/18 11:41:59;;;;;;;6.03;2.23;;;19.30;54.50;;;;;;6209538;23;20479;-83
2023/03/18 11:44:32;;;;;;;1.93;1.40;;;19.30;54.80;;;;;;6236570;23;20479;-83
2023/03/18 11:47:23;;;;;;;4.93;2.03;;;19.30;53.40;;;;;;6234212;23;20412;-80
2023/03/18 11:49:48;;;;;;;4.03;1.83;;;19.40;54.50;;;;;;6237567;23;20837;-84
2023/03/18 11:52:50;;;;;;;2.47;1.57;;;19.30;54.40;;;;;;6236938;23;20421;-84
2023/03/18 11:55:20;;;;;;;2.90;1.90;;;19.20;55.90;;;;;;6210445;23;20163;-85
2023/03/18 11:58:30;;;;;;;12.93;1.80;;;19.20;55.50;;;;;;6214298;23;20514;-84
2023/03/18 12:01:22;;;;;;;5.87;1.90;;;19.20;56.80;;;;;;6123371;23;20379;-85
2023/03/18 12:04:12;;;;;;;4.50;1.30;;;19.10;55.80;;;;;;6114384;23;20411;-83
2023/03/18 12:06:56;;;;;;;3.93;1.90;;;19.10;55.80;;;;;;6220373;23;20384;-82
2023/03/18 12:09:48;;;;;;;4.50;1.93;;;19.20;54.50;;;;;;6240981;23;20457;-84
2023/03/18 12:12:41;;;;;;;2.67;1.70;;;19.40;54.50;;;;;;6214971;23;20848;-81
2023/03/18 12:15:24;;;;;;;3.47;1.70;;;19.60;55.00;;;;;;6211246;23;20491;-83
2023/03/18 12:18:17;;;;;;;3.50;1.93;;;19.60;54.40;;;;;;6239785;23;20386;-83
2023/03/18 12:20:49;;;;;;;4.40;1.73;;;19.80;56.50;;;;;;6212117;23;21180;-86
2023/03/18 12:23:28;;;;;;;3.60;1.50;;;19.90;57.20;;;;;;6240948;23;20399;-83
2023/03/18 12:26:05;;;;;;;9.03;2.60;;;20.00;53.40;;;;;;6213564;23;20456;-83
2023/03/18 12:28:41;;;;;;;3.00;1.23;;;19.80;53.30;;;;;;6242527;23;20489;-84
2023/03/18 12:31:33;;;;;;;8.87;2.07;;;19.60;54.50;;;;;;6212501;23;21288;-84
2023/03/18 12:34:01;;;;;;;6.63;1.50;;;19.60;54.10;;;;;;6240099;23;20418;-85
2023/03/18 12:36:46;;;;;;;2.60;1.60;;;19.70;54.80;;;;;;6212148;23;20390;-83
2023/03/18 12:39:42;;;;;;;3.40;1.90;;;19.80;54.80;;;;;;6240918;23;20459;-83
2023/03/18 12:42:16;;;;;;;2.63;1.50;;;19.60;55.00;;;;;;6238814;23;20378;-84
2023/03/18 12:44:59;;;;;;;3.63;1.60;;;19.50;54.70;;;;;;6214155;23;20752;-83
2023/03/18 12:47:45;;;;;;;4.93;2.50;;;19.30;53.70;;;;;;6214255;23;20458;-84
2023/03/18 12:50:14;;;;;;;2.13;1.63;;;19.30;55.50;;;;;;6211513;23;20426;-80
2023/03/18 12:52:46;;;;;;;3.40;1.30;;;19.50;55.00;;;;;;6239430;23;20435;-81
2023/03/18 12:55:17;;;;;;;6.10;1.97;;;19.70;55.00;;;;;;6211041;23;20394;-84
2023/03/18 12:58:01;;;;;;;5.50;2.00;;;20.00;54.20;;;;;;6238261;23;20379;-84
2023/03/18 13:00:53;;;;;;;9.03;2.00;;;20.10;54.30;;;;;;6237344;23;20356;-84
2023/03/18 13:03:30;;;;;;;4.03;1.70;;;20.20;52.90;;;;;;6210642;23;20441;-82